createdAt,value
2018-12-04T00:00:28.982Z,21.72
2018-12-04T00:02:55.892Z,21.74
2018-12-04T00:05:22.829Z,21.74
2018-12-04T00:07:49.760Z,21.74
2018-12-04T00:10:16.685Z,21.73
2018-12-04T00:12:43.603Z,21.72
2018-12-04T00:15:10.523Z,21.73
2018-12-04T00:17:37.443Z,21.72
2018-12-04T00:20:04.377Z,21.72
2018-12-04T00:22:31.297Z,21.71
2018-12-04T00:24:58.223Z,21.70
2018-12-04T00:27:25.199Z,21.71
2018-12-04T00:29:52.116Z,21.72
2018-12-04T00:32:19.036Z,21.72
2018-12-04T00:34:45.954Z,21.72
2018-12-04T00:37:12.877Z,21.73
2018-12-04T00:39:39.788Z,21.71
2018-12-04T00:42:06.704Z,21.72
2018-12-04T00:44:33.615Z,21.72
2018-12-04T00:47:00.527Z,21.72
2018-12-04T00:49:27.456Z,21.72
2018-12-04T00:51:54.365Z,21.72
2018-12-04T00:54:21.284Z,21.72
2018-12-04T00:56:48.207Z,21.72
2018-12-04T00:59:15.113Z,21.70
2018-12-04T01:01:42.028Z,21.71
2018-12-04T01:04:08.944Z,21.71
2018-12-04T01:06:35.844Z,21.70
2018-12-04T01:09:02.765Z,21.70
2018-12-04T01:11:29.660Z,21.70
2018-12-04T01:13:56.577Z,21.71
2018-12-04T01:16:23.497Z,21.72
2018-12-04T01:18:50.400Z,21.70
2018-12-04T01:21:17.323Z,21.70
2018-12-04T01:23:44.224Z,21.69
2018-12-04T01:26:11.128Z,21.70
2018-12-04T01:28:38.045Z,21.70
2018-12-04T01:31:04.963Z,21.70
2018-12-04T01:33:31.883Z,21.71
2018-12-04T01:35:58.810Z,21.73
2018-12-04T01:38:25.718Z,21.73
2018-12-04T01:40:52.634Z,21.76
2018-12-04T01:43:19.541Z,21.74
2018-12-04T01:45:46.466Z,21.74
2018-12-04T01:48:13.395Z,21.72
2018-12-04T01:50:40.299Z,21.77
2018-12-04T01:53:07.222Z,21.77
2018-12-04T01:55:34.139Z,21.77
2018-12-04T01:58:01.050Z,21.75
2018-12-04T02:00:27.963Z,21.74
2018-12-04T02:02:54.880Z,21.72
2018-12-04T02:05:21.781Z,21.72
2018-12-04T02:07:48.698Z,21.73
2018-12-04T02:10:15.606Z,21.72
2018-12-04T02:12:42.526Z,21.70
2018-12-04T02:15:09.445Z,21.69
2018-12-04T02:17:36.356Z,21.70
2018-12-04T02:20:03.286Z,21.69
2018-12-04T02:22:30.186Z,21.69
2018-12-04T02:24:57.109Z,21.68
2018-12-04T02:27:24.031Z,21.68
2018-12-04T02:29:50.932Z,21.68
2018-12-04T02:32:17.861Z,21.68
2018-12-04T02:34:44.776Z,21.69
2018-12-04T02:37:11.681Z,21.68
2018-12-04T02:39:38.604Z,21.68
2018-12-04T02:42:05.523Z,21.69
2018-12-04T02:44:32.421Z,21.68
2018-12-04T02:46:59.348Z,21.68
2018-12-04T02:49:26.255Z,21.68
2018-12-04T02:51:53.167Z,21.69
2018-12-04T02:54:20.088Z,21.69
2018-12-04T02:56:46.996Z,21.69
2018-12-04T02:59:13.953Z,21.70
2018-12-04T03:01:40.852Z,21.68
2018-12-04T03:04:07.764Z,21.69
2018-12-04T03:06:34.677Z,21.68
2018-12-04T03:09:01.596Z,21.68
2018-12-04T03:11:28.502Z,21.69
2018-12-04T03:13:55.420Z,21.69
2018-12-04T03:16:22.342Z,21.69
2018-12-04T03:18:49.256Z,21.69
2018-12-04T03:21:16.236Z,21.69
2018-12-04T03:23:43.154Z,21.69
2018-12-04T03:26:10.059Z,21.70
2018-12-04T03:28:36.979Z,21.69
2018-12-04T03:31:03.883Z,21.69
2018-12-04T03:33:30.801Z,21.68
2018-12-04T03:35:57.726Z,21.68
2018-12-04T03:38:24.636Z,21.68
2018-12-04T03:40:51.560Z,21.68
2018-12-04T03:43:18.490Z,21.68
2018-12-04T03:45:45.396Z,21.68
2018-12-04T03:48:12.318Z,21.69
2018-12-04T03:50:39.233Z,21.68
2018-12-04T03:53:06.140Z,21.68
2018-12-04T03:55:34.408Z,21.68
2018-12-04T03:57:59.975Z,21.67
2018-12-04T04:00:26.903Z,21.67
2018-12-04T04:02:53.825Z,21.66
2018-12-04T04:05:20.740Z,21.65
2018-12-04T04:07:47.656Z,21.65
2018-12-04T04:10:14.563Z,21.67
2018-12-04T04:12:41.474Z,21.66
2018-12-04T04:15:08.400Z,21.66
2018-12-04T04:17:35.303Z,21.66
2018-12-04T04:20:02.271Z,21.66
2018-12-04T04:22:29.192Z,21.67
2018-12-04T04:24:56.101Z,21.67
2018-12-04T04:27:23.029Z,21.66
2018-12-04T04:29:49.932Z,21.65
2018-12-04T04:32:16.852Z,21.67
2018-12-04T04:34:43.775Z,21.67
2018-12-04T04:37:10.671Z,21.67
2018-12-04T04:39:37.593Z,21.67
2018-12-04T04:42:04.556Z,21.67
2018-12-04T04:44:31.470Z,21.66
2018-12-04T04:46:58.388Z,21.67
2018-12-04T04:49:25.296Z,21.69
2018-12-04T04:51:52.238Z,21.70
2018-12-04T04:54:19.154Z,21.70
2018-12-04T04:56:46.058Z,21.70
2018-12-04T04:59:13.018Z,21.71
2018-12-04T05:01:39.941Z,21.70
2018-12-04T05:04:06.848Z,21.70
2018-12-04T05:06:33.774Z,21.68
2018-12-04T05:09:00.675Z,21.67
2018-12-04T05:11:27.582Z,21.68
2018-12-04T05:13:54.502Z,21.69
2018-12-04T05:16:21.405Z,21.69
2018-12-04T05:18:48.337Z,21.67
2018-12-04T05:21:15.253Z,21.65
2018-12-04T05:23:42.158Z,21.67
2018-12-04T05:26:09.083Z,21.66
2018-12-04T05:28:35.990Z,21.66
2018-12-04T05:31:03.444Z,21.65
2018-12-04T05:33:30.364Z,21.65
2018-12-04T05:35:57.301Z,21.63
2018-12-04T05:38:24.221Z,21.62
2018-12-04T05:40:51.136Z,21.58
2018-12-04T05:43:18.047Z,21.56
2018-12-04T05:45:44.987Z,21.58
2018-12-04T05:48:11.899Z,21.56
2018-12-04T05:50:38.823Z,21.56
2018-12-04T05:53:05.751Z,21.57
2018-12-04T05:55:32.667Z,21.53
2018-12-04T05:57:59.602Z,21.55
2018-12-04T06:00:26.546Z,21.55
2018-12-04T06:02:53.506Z,21.55
2018-12-04T06:05:20.433Z,21.54
2018-12-04T06:07:47.347Z,21.53
2018-12-04T06:10:14.261Z,21.54
2018-12-04T06:12:41.197Z,21.52
2018-12-04T06:15:08.112Z,21.51
2018-12-04T06:17:35.080Z,21.51
2018-12-04T06:20:02.005Z,21.54
2018-12-04T06:22:28.912Z,21.53
2018-12-04T06:24:55.848Z,21.55
2018-12-04T06:27:22.766Z,21.53
2018-12-04T06:29:49.689Z,21.54
